sensor_id;sensor_type;location;lat;lon;timestamp;temperature;humidity
47576;DHT22;33304;52.456;13.328;2023-02-10T00:00:18;1.80;25.00
47576;DHT22;33304;52.456;13.328;2023-02-10T00:02:46;1.90;24.80
47576;DHT22;33304;52.456;13.328;2023-02-10T00:05:13;1.90;25.00
47576;DHT22;33304;52.456;13.328;2023-02-10T00:07:40;1.90;25.30
47576;DHT22;33304;52.456;13.328;2023-02-10T00:10:08;1.90;24.90
47576;DHT22;33304;52.456;13.328;2023-02-10T00:12:36;1.90;25.10
47576;DHT22;33304;52.456;13.328;2023-02-10T00:15:04;2.00;24.90
47576;DHT22;33304;52.456;13.328;2023-02-10T00:17:31;2.00;24.80
47576;DHT22;33304;52.456;13.328;2023-02-10T00:19:59;2.00;25.00
47576;DHT22;33304;52.456;13.328;2023-02-10T00:22:26;2.10;25.00
47576;DHT22;33304;52.456;13.328;2023-02-10T00:24:53;2.00;24.80
47576;DHT22;33304;52.456;13.328;2023-02-10T00:27:20;2.10;24.70
47576;DHT22;33304;52.456;13.328;2023-02-10T00:29:50;2.10;24.90
47576;DHT22;33304;52.456;13.328;2023-02-10T00:32:17;2.00;25.20
47576;DHT22;33304;52.456;13.328;2023-02-10T00:34:45;2.10;25.40
47576;DHT22;33304;52.456;13.328;2023-02-10T00:37:14;2.20;25.10
47576;DHT22;33304;52.456;13.328;2023-02-10T00:39:41;2.20;25.00
47576;DHT22;33304;52.456;13.328;2023-02-10T00:42:08;2.10;25.60
47576;DHT22;33304;52.456;13.328;2023-02-10T00:44:35;2.00;26.30
47576;DHT22;33304;52.456;13.328;2023-02-10T00:47:03;2.00;26.80
47576;DHT22;33304;52.456;13.328;2023-02-10T00:49:30;2.20;26.00
47576;DHT22;33304;52.456;13.328;2023-02-10T00:51:57;2.10;26.20
47576;DHT22;33304;52.456;13.328;2023-02-10T00:54:26;2.10;26.90
47576;DHT22;33304;52.456;13.328;2023-02-10T00:56:53;2.20;26.90
47576;DHT22;33304;52.456;13.328;2023-02-10T00:59:20;2.20;26.90
47576;DHT22;33304;52.456;13.328;2023-02-10T01:01:47;2.20;26.90
47576;DHT22;33304;52.456;13.328;2023-02-10T01:04:14;2.20;26.90
47576;DHT22;33304;52.456;13.328;2023-02-10T01:06:42;2.20;26.90
47576;DHT22;33304;52.456;13.328;2023-02-10T01:09:09;2.20;27.00
47576;DHT22;33304;52.456;13.328;2023-02-10T01:11:37;2.20;26.90
47576;DHT22;33304;52.456;13.328;2023-02-10T01:14:05;2.20;26.90
47576;DHT22;33304;52.456;13.328;2023-02-10T01:16:32;2.10;26.90
47576;DHT22;33304;52.456;13.328;2023-02-10T01:18:59;2.10;26.90
47576;DHT22;33304;52.456;13.328;2023-02-10T01:21:27;2.10;26.90
47576;DHT22;33304;52.456;13.328;2023-02-10T01:23:55;2.20;26.90
47576;DHT22;33304;52.456;13.328;2023-02-10T01:26:23;2.10;26.90
47576;DHT22;33304;52.456;13.328;2023-02-10T01:28:51;2.20;26.90
47576;DHT22;33304;52.456;13.328;2023-02-10T01:31:20;2.20;27.00
47576;DHT22;33304;52.456;13.328;2023-02-10T01:33:50;2.10;26.90
47576;DHT22;33304;52.456;13.328;2023-02-10T01:36:19;2.00;27.30
47576;DHT22;33304;52.456;13.328;2023-02-10T01:38:47;2.00;27.80
47576;DHT22;33304;52.456;13.328;2023-02-10T01:41:16;1.90;28.20
47576;DHT22;33304;52.456;13.328;2023-02-10T01:43:57;2.00;28.30
47576;DHT22;33304;52.456;13.328;2023-02-10T01:46:25;1.90;29.00
47576;DHT22;33304;52.456;13.328;2023-02-10T01:48:54;1.90;29.10
47576;DHT22;33304;52.456;13.328;2023-02-10T01:51:25;1.80;29.40
47576;DHT22;33304;52.456;13.328;2023-02-10T01:53:54;1.80;30.20
47576;DHT22;33304;52.456;13.328;2023-02-10T01:56:21;2.00;29.70
47576;DHT22;33304;52.456;13.328;2023-02-10T01:58:49;2.00;29.30
47576;DHT22;33304;52.456;13.328;2023-02-10T02:01:17;1.90;29.90
47576;DHT22;33304;52.456;13.328;2023-02-10T02:03:45;2.00;30.00
47576;DHT22;33304;52.456;13.328;2023-02-10T02:06:12;1.90;30.00
47576;DHT22;33304;52.456;13.328;2023-02-10T02:08:39;1.80;30.60
47576;DHT22;33304;52.456;13.328;2023-02-10T02:11:18;1.70;31.40
47576;DHT22;33304;52.456;13.328;2023-02-10T02:13:53;1.60;31.30
47576;DHT22;33304;52.456;13.328;2023-02-10T02:16:34;1.70;31.70
47576;DHT22;33304;52.456;13.328;2023-02-10T02:19:22;1.60;32.60
47576;DHT22;33304;52.456;13.328;2023-02-10T02:22:26;1.50;32.70
47576;DHT22;33304;52.456;13.328;2023-02-10T02:25:16;1.50;33.70
47576;DHT22;33304;52.456;13.328;2023-02-10T02:28:11;1.40;34.90
47576;DHT22;33304;52.456;13.328;2023-02-10T02:31:09;1.50;34.90
47576;DHT22;33304;52.456;13.328;2023-02-10T02:33:47;1.50;35.00
47576;DHT22;33304;52.456;13.328;2023-02-10T02:36:19;1.50;34.60
47576;DHT22;33304;52.456;13.328;2023-02-10T02:38:50;1.30;35.20
47576;DHT22;33304;52.456;13.328;2023-02-10T02:41:22;1.30;35.60
47576;DHT22;33304;52.456;13.328;2023-02-10T02:43:51;1.40;35.80
47576;DHT22;33304;52.456;13.328;2023-02-10T02:46:25;1.50;35.30
47576;DHT22;33304;52.456;13.328;2023-02-10T02:49:03;1.40;35.50
47576;DHT22;33304;52.456;13.328;2023-02-10T02:51:42;1.40;35.80
47576;DHT22;33304;52.456;13.328;2023-02-10T02:54:17;1.40;35.50
47576;DHT22;33304;52.456;13.328;2023-02-10T02:56:49;1.50;35.70
47576;DHT22;33304;52.456;13.328;2023-02-10T02:59:23;1.40;35.70
47576;DHT22;33304;52.456;13.328;2023-02-10T03:01:54;1.30;36.80
47576;DHT22;33304;52.456;13.328;2023-02-10T03:04:26;1.40;36.90
47576;DHT22;33304;52.456;13.328;2023-02-10T03:06:54;1.40;36.90
47576;DHT22;33304;52.456;13.328;2023-02-10T03:09:22;1.30;36.80
47576;DHT22;33304;52.456;13.328;2023-02-10T03:11:49;1.30;36.80
47576;DHT22;33304;52.456;13.328;2023-02-10T03:14:16;1.30;36.90
47576;DHT22;33304;52.456;13.328;2023-02-10T03:16:43;1.30;37.80
47576;DHT22;33304;52.456;13.328;2023-02-10T03:19:10;1.30;38.70
47576;DHT22;33304;52.456;13.328;2023-02-10T03:21:39;1.30;38.90
47576;DHT22;33304;52.456;13.328;2023-02-10T03:24:06;1.20;40.10
47576;DHT22;33304;52.456;13.328;2023-02-10T03:26:35;1.20;40.40
47576;DHT22;33304;52.456;13.328;2023-02-10T03:29:03;1.10;42.00
47576;DHT22;33304;52.456;13.328;2023-02-10T03:31:30;1.10;43.00
47576;DHT22;33304;52.456;13.328;2023-02-10T03:33:57;1.20;43.60
47576;DHT22;33304;52.456;13.328;2023-02-10T03:36:24;1.10;44.70
47576;DHT22;33304;52.456;13.328;2023-02-10T03:38:53;1.20;45.20
47576;DHT22;33304;52.456;13.328;2023-02-10T03:41:20;1.10;45.50
47576;DHT22;33304;52.456;13.328;2023-02-10T03:43:47;1.20;47.90
47576;DHT22;33304;52.456;13.328;2023-02-10T03:46:14;1.20;48.20
47576;DHT22;33304;52.456;13.328;2023-02-10T03:48:41;1.30;49.00
47576;DHT22;33304;52.456;13.328;2023-02-10T03:51:09;1.30;50.00
47576;DHT22;33304;52.456;13.328;2023-02-10T03:53:36;1.40;50.30
47576;DHT22;33304;52.456;13.328;2023-02-10T03:56:06;1.30;50.70
47576;DHT22;33304;52.456;13.328;2023-02-10T03:58:33;1.20;52.30
47576;DHT22;33304;52.456;13.328;2023-02-10T04:01:08;1.40;54.00
47576;DHT22;33304;52.456;13.328;2023-02-10T04:03:35;1.40;55.10
47576;DHT22;33304;52.456;13.328;2023-02-10T04:06:02;1.40;55.30
47576;DHT22;33304;52.456;13.328;2023-02-10T04:08:29;1.50;56.90
47576;DHT22;33304;52.456;13.328;2023-02-10T04:10:56;1.40;58.00
47576;DHT22;33304;52.456;13.328;2023-02-10T04:13:25;1.50;58.10
47576;DHT22;33304;52.456;13.328;2023-02-10T04:16:00;1.50;59.00
47576;DHT22;33304;52.456;13.328;2023-02-10T04:18:27;1.60;59.10
47576;DHT22;33304;52.456;13.328;2023-02-10T04:20:55;1.60;60.10
47576;DHT22;33304;52.456;13.328;2023-02-10T04:23:22;1.60;60.60
47576;DHT22;33304;52.456;13.328;2023-02-10T04:25:49;1.60;61.00
47576;DHT22;33304;52.456;13.328;2023-02-10T04:28:16;1.80;60.90
47576;DHT22;33304;52.456;13.328;2023-02-10T04:30:45;1.80;61.40
47576;DHT22;33304;52.456;13.328;2023-02-10T04:33:12;1.70;61.80
47576;DHT22;33304;52.456;13.328;2023-02-10T04:35:39;1.70;62.70
47576;DHT22;33304;52.456;13.328;2023-02-10T04:38:06;1.70;63.60
47576;DHT22;33304;52.456;13.328;2023-02-10T04:40:33;1.70;63.40
47576;DHT22;33304;52.456;13.328;2023-02-10T04:43:00;1.70;64.10
47576;DHT22;33304;52.456;13.328;2023-02-10T04:45:27;1.60;66.80
47576;DHT22;33304;52.456;13.328;2023-02-10T04:47:55;1.70;69.80
47576;DHT22;33304;52.456;13.328;2023-02-10T04:50:23;1.80;68.50
47576;DHT22;33304;52.456;13.328;2023-02-10T04:52:50;1.80;68.40
47576;DHT22;33304;52.456;13.328;2023-02-10T04:55:17;1.70;69.80
47576;DHT22;33304;52.456;13.328;2023-02-10T04:57:44;1.70;70.50
47576;DHT22;33304;52.456;13.328;2023-02-10T05:00:12;1.80;70.80
47576;DHT22;33304;52.456;13.328;2023-02-10T05:02:39;1.90;70.00
47576;DHT22;33304;52.456;13.328;2023-02-10T05:05:09;1.80;71.60
47576;DHT22;33304;52.456;13.328;2023-02-10T05:07:37;1.90;72.10
47576;DHT22;33304;52.456;13.328;2023-02-10T05:10:04;1.90;71.60
47576;DHT22;33304;52.456;13.328;2023-02-10T05:12:31;1.90;71.60
47576;DHT22;33304;52.456;13.328;2023-02-10T05:14:58;1.90;72.30
47576;DHT22;33304;52.456;13.328;2023-02-10T05:17:25;2.00;72.40
47576;DHT22;33304;52.456;13.328;2023-02-10T05:19:53;2.00;72.60
47576;DHT22;33304;52.456;13.328;2023-02-10T05:22:21;2.00;72.90
47576;DHT22;33304;52.456;13.328;2023-02-10T05:24:51;2.00;74.60
47576;DHT22;33304;52.456;13.328;2023-02-10T05:27:20;1.90;75.20
47576;DHT22;33304;52.456;13.328;2023-02-10T05:29:47;2.00;75.30
47576;DHT22;33304;52.456;13.328;2023-02-10T05:32:14;2.10;75.40
47576;DHT22;33304;52.456;13.328;2023-02-10T05:34:41;2.00;75.90
47576;DHT22;33304;52.456;13.328;2023-02-10T05:37:08;2.00;76.10
47576;DHT22;33304;52.456;13.328;2023-02-10T05:39:36;1.90;79.40
47576;DHT22;33304;52.456;13.328;2023-02-10T05:42:03;1.90;80.30
47576;DHT22;33304;52.456;13.328;2023-02-10T05:44:30;2.00;84.60
47576;DHT22;33304;52.456;13.328;2023-02-10T05:46:58;2.10;84.20
47576;DHT22;33304;52.456;13.328;2023-02-10T05:49:25;2.00;84.70
47576;DHT22;33304;52.456;13.328;2023-02-10T05:51:52;2.00;86.00
47576;DHT22;33304;52.456;13.328;2023-02-10T05:54:19;2.00;86.80
47576;DHT22;33304;52.456;13.328;2023-02-10T05:56:48;2.00;87.60
47576;DHT22;33304;52.456;13.328;2023-02-10T05:59:16;2.00;90.10
47576;DHT22;33304;52.456;13.328;2023-02-10T06:01:43;2.10;90.20
47576;DHT22;33304;52.456;13.328;2023-02-10T06:04:11;2.00;90.10
47576;DHT22;33304;52.456;13.328;2023-02-10T06:06:38;2.00;91.20
47576;DHT22;33304;52.456;13.328;2023-02-10T06:09:05;1.90;93.20
47576;DHT22;33304;52.456;13.328;2023-02-10T06:11:32;2.00;93.30
47576;DHT22;33304;52.456;13.328;2023-02-10T06:14:01;2.00;93.30
47576;DHT22;33304;52.456;13.328;2023-02-10T06:16:28;1.90;95.10
47576;DHT22;33304;52.456;13.328;2023-02-10T06:18:55;2.00;96.70
47576;DHT22;33304;52.456;13.328;2023-02-10T06:21:22;1.90;98.20
47576;DHT22;33304;52.456;13.328;2023-02-10T06:23:49;1.90;98.80
47576;DHT22;33304;52.456;13.328;2023-02-10T06:26:17;1.80;99.90
47576;DHT22;33304;52.456;13.328;2023-02-10T06:28:44;1.90;99.90
47576;DHT22;33304;52.456;13.328;2023-02-10T06:31:13;1.80;99.90
47576;DHT22;33304;52.456;13.328;2023-02-10T06:33:40;1.80;99.90
47576;DHT22;33304;52.456;13.328;2023-02-10T06:36:08;1.70;99.90
47576;DHT22;33304;52.456;13.328;2023-02-10T06:38:37;1.70;99.90
47576;DHT22;33304;52.456;13.328;2023-02-10T06:41:04;1.70;99.90
47576;DHT22;33304;52.456;13.328;2023-02-10T06:43:32;1.60;99.90
47576;DHT22;33304;52.456;13.328;2023-02-10T06:45:59;1.60;99.90
47576;DHT22;33304;52.456;13.328;2023-02-10T06:48:27;1.50;99.90
47576;DHT22;33304;52.456;13.328;2023-02-10T06:50:54;1.50;99.90
47576;DHT22;33304;52.456;13.328;2023-02-10T06:53:22;1.50;99.90
47576;DHT22;33304;52.456;13.328;2023-02-10T06:55:49;1.50;99.90
47576;DHT22;33304;52.456;13.328;2023-02-10T06:58:16;1.50;99.90
47576;DHT22;33304;52.456;13.328;2023-02-10T07:00:43;1.50;99.90
47576;DHT22;33304;52.456;13.328;2023-02-10T07:03:12;1.50;99.90
47576;DHT22;33304;52.456;13.328;2023-02-10T07:05:40;1.50;99.90
47576;DHT22;33304;52.456;13.328;2023-02-10T07:08:08;1.50;99.90
47576;DHT22;33304;52.456;13.328;2023-02-10T07:10:35;1.40;99.90
47576;DHT22;33304;52.456;13.328;2023-02-10T07:13:03;1.40;99.90
47576;DHT22;33304;52.456;13.328;2023-02-10T07:15:30;1.50;99.90
47576;DHT22;33304;52.456;13.328;2023-02-10T07:17:57;1.40;99.90
47576;DHT22;33304;52.456;13.328;2023-02-10T07:20:25;1.40;99.90
47576;DHT22;33304;52.456;13.328;2023-02-10T07:22:53;1.60;99.90
47576;DHT22;33304;52.456;13.328;2023-02-10T07:25:20;1.60;99.90
47576;DHT22;33304;52.456;13.328;2023-02-10T07:27:48;1.60;99.90
47576;DHT22;33304;52.456;13.328;2023-02-10T07:30:15;1.50;99.90
47576;DHT22;33304;52.456;13.328;2023-02-10T07:32:42;1.50;99.90
47576;DHT22;33304;52.456;13.328;2023-02-10T07:35:10;1.60;99.90
47576;DHT22;33304;52.456;13.328;2023-02-10T07:37:38;1.60;99.90
47576;DHT22;33304;52.456;13.328;2023-02-10T07:40:08;1.70;99.90
47576;DHT22;33304;52.456;13.328;2023-02-10T07:42:35;1.70;99.90
47576;DHT22;33304;52.456;13.328;2023-02-10T07:45:25;1.80;99.90
47576;DHT22;33304;52.456;13.328;2023-02-10T07:47:56;1.90;99.90
47576;DHT22;33304;52.456;13.328;2023-02-10T07:50:24;2.10;99.90
47576;DHT22;33304;52.456;13.328;2023-02-10T07:52:51;2.10;99.90
47576;DHT22;33304;52.456;13.328;2023-02-10T07:55:20;2.30;99.80
47576;DHT22;33304;52.456;13.328;2023-02-10T07:57:47;2.40;97.90
47576;DHT22;33304;52.456;13.328;2023-02-10T08:00:15;2.40;96.20
47576;DHT22;33304;52.456;13.328;2023-02-10T08:02:42;2.40;94.70
47576;DHT22;33304;52.456;13.328;2023-02-10T08:05:09;2.40;94.50
47576;DHT22;33304;52.456;13.328;2023-02-10T08:07:36;2.40;94.70
47576;DHT22;33304;52.456;13.328;2023-02-10T08:10:04;2.50;94.00
47576;DHT22;33304;52.456;13.328;2023-02-10T08:12:32;2.70;92.60
47576;DHT22;33304;52.456;13.328;2023-02-10T08:14:59;2.70;89.00
47576;DHT22;33304;52.456;13.328;2023-02-10T08:17:27;2.70;90.30
47576;DHT22;33304;52.456;13.328;2023-02-10T08:19:54;2.80;87.00
47576;DHT22;33304;52.456;13.328;2023-02-10T08:22:22;2.80;85.00
47576;DHT22;33304;52.456;13.328;2023-02-10T08:24:49;2.90;83.30
47576;DHT22;33304;52.456;13.328;2023-02-10T08:27:17;2.90;83.20
47576;DHT22;33304;52.456;13.328;2023-02-10T08:29:45;2.90;82.00
47576;DHT22;33304;52.456;13.328;2023-02-10T08:32:12;3.10;78.20
47576;DHT22;33304;52.456;13.328;2023-02-10T08:34:44;3.10;74.90
47576;DHT22;33304;52.456;13.328;2023-02-10T08:37:12;3.20;71.20
47576;DHT22;33304;52.456;13.328;2023-02-10T08:39:39;3.30;69.00
47576;DHT22;33304;52.456;13.328;2023-02-10T08:42:06;3.30;68.60
47576;DHT22;33304;52.456;13.328;2023-02-10T08:44:33;3.30;69.00
47576;DHT22;33304;52.456;13.328;2023-02-10T08:47:02;3.40;66.90
47576;DHT22;33304;52.456;13.328;2023-02-10T08:49:30;3.50;65.70
47576;DHT22;33304;52.456;13.328;2023-02-10T08:51:57;3.50;64.30
47576;DHT22;33304;52.456;13.328;2023-02-10T08:54:25;3.60;63.40
47576;DHT22;33304;52.456;13.328;2023-02-10T08:56:53;3.50;63.60
47576;DHT22;33304;52.456;13.328;2023-02-10T08:59:20;3.50;64.10
47576;DHT22;33304;52.456;13.328;2023-02-10T09:01:47;3.50;64.10
47576;DHT22;33304;52.456;13.328;2023-02-10T09:04:16;3.70;62.20
47576;DHT22;33304;52.456;13.328;2023-02-10T09:06:43;3.80;60.90
47576;DHT22;33304;52.456;13.328;2023-02-10T09:09:12;4.00;59.90
47576;DHT22;33304;52.456;13.328;2023-02-10T09:11:40;4.10;57.30
47576;DHT22;33304;52.456;13.328;2023-02-10T09:14:08;4.20;56.00
47576;DHT22;33304;52.456;13.328;2023-02-10T09:16:35;4.20;55.60
47576;DHT22;33304;52.456;13.328;2023-02-10T09:19:02;4.30;53.00
47576;DHT22;33304;52.456;13.328;2023-02-10T09:21:31;4.40;53.00
47576;DHT22;33304;52.456;13.328;2023-02-10T09:23:58;4.40;51.90
47576;DHT22;33304;52.456;13.328;2023-02-10T09:26:26;4.40;50.60
47576;DHT22;33304;52.456;13.328;2023-02-10T09:28:53;4.50;51.90
47576;DHT22;33304;52.456;13.328;2023-02-10T09:31:20;4.40;51.00
47576;DHT22;33304;52.456;13.328;2023-02-10T09:33:48;4.40;52.50
47576;DHT22;33304;52.456;13.328;2023-02-10T09:36:16;4.40;52.00
47576;DHT22;33304;52.456;13.328;2023-02-10T09:38:46;4.40;52.20
47576;DHT22;33304;52.456;13.328;2023-02-10T09:41:19;4.60;51.20
47576;DHT22;33304;52.456;13.328;2023-02-10T09:43:57;4.50;50.90
47576;DHT22;33304;52.456;13.328;2023-02-10T09:46:35;4.50;51.60
47576;DHT22;33304;52.456;13.328;2023-02-10T09:49:27;4.50;51.70
47576;DHT22;33304;52.456;13.328;2023-02-10T09:52:05;4.60;51.90
47576;DHT22;33304;52.456;13.328;2023-02-10T09:54:36;4.40;52.40
47576;DHT22;33304;52.456;13.328;2023-02-10T09:57:04;4.50;52.40
47576;DHT22;33304;52.456;13.328;2023-02-10T09:59:33;4.80;51.00
47576;DHT22;33304;52.456;13.328;2023-02-10T10:02:07;4.60;50.80
47576;DHT22;33304;52.456;13.328;2023-02-10T10:04:38;4.70;50.90
47576;DHT22;33304;52.456;13.328;2023-02-10T10:07:15;4.80;49.10
47576;DHT22;33304;52.456;13.328;2023-02-10T10:09:47;4.80;49.60
47576;DHT22;33304;52.456;13.328;2023-02-10T10:12:19;4.80;50.10
47576;DHT22;33304;52.456;13.328;2023-02-10T10:14:47;4.90;50.10
47576;DHT22;33304;52.456;13.328;2023-02-10T10:17:41;4.80;49.40
47576;DHT22;33304;52.456;13.328;2023-02-10T10:20:29;4.90;48.60
47576;DHT22;33304;52.456;13.328;2023-02-10T10:23:06;4.90;48.90
47576;DHT22;33304;52.456;13.328;2023-02-10T10:25:53;4.80;47.80
47576;DHT22;33304;52.456;13.328;2023-02-10T10:28:31;5.00;47.90
47576;DHT22;33304;52.456;13.328;2023-02-10T10:31:07;5.10;46.80
47576;DHT22;33304;52.456;13.328;2023-02-10T10:33:38;4.90;46.50
47576;DHT22;33304;52.456;13.328;2023-02-10T10:36:13;4.80;47.70
47576;DHT22;33304;52.456;13.328;2023-02-10T10:38:44;5.00;47.90
47576;DHT22;33304;52.456;13.328;2023-02-10T10:41:14;5.20;46.90
47576;DHT22;33304;52.456;13.328;2023-02-10T10:43:44;5.30;44.90
47576;DHT22;33304;52.456;13.328;2023-02-10T10:46:15;5.10;44.60
47576;DHT22;33304;52.456;13.328;2023-02-10T10:48:44;5.10;45.70
47576;DHT22;33304;52.456;13.328;2023-02-10T10:51:12;5.20;45.00
47576;DHT22;33304;52.456;13.328;2023-02-10T10:53:43;5.10;45.10
47576;DHT22;33304;52.456;13.328;2023-02-10T10:56:19;5.20;45.70
47576;DHT22;33304;52.456;13.328;2023-02-10T10:58:47;5.20;45.70
47576;DHT22;33304;52.456;13.328;2023-02-10T11:01:17;5.30;44.30
47576;DHT22;33304;52.456;13.328;2023-02-10T11:03:44;5.30;44.20
47576;DHT22;33304;52.456;13.328;2023-02-10T11:06:14;5.50;44.20
47576;DHT22;33304;52.456;13.328;2023-02-10T11:08:45;5.60;42.70
47576;DHT22;33304;52.456;13.328;2023-02-10T11:11:31;5.60;41.00
47576;DHT22;33304;52.456;13.328;2023-02-10T11:13:59;5.40;43.30
47576;DHT22;33304;52.456;13.328;2023-02-10T11:16:26;5.40;43.40
47576;DHT22;33304;52.456;13.328;2023-02-10T11:18:56;5.50;43.40
47576;DHT22;33304;52.456;13.328;2023-02-10T11:21:33;5.50;42.70
47576;DHT22;33304;52.456;13.328;2023-02-10T11:24:01;5.50;42.80
47576;DHT22;33304;52.456;13.328;2023-02-10T11:26:30;5.60;42.70
47576;DHT22;33304;52.456;13.328;2023-02-10T11:29:08;5.60;41.90
47576;DHT22;33304;52.456;13.328;2023-02-10T11:31:36;5.60;41.70
47576;DHT22;33304;52.456;13.328;2023-02-10T11:34:16;5.60;41.80
47576;DHT22;33304;52.456;13.328;2023-02-10T11:36:46;5.80;40.60
47576;DHT22;33304;52.456;13.328;2023-02-10T11:39:20;6.00;40.80
47576;DHT22;33304;52.456;13.328;2023-02-10T11:41:51;5.90;40.70
47576;DHT22;33304;52.456;13.328;2023-02-10T11:44:25;5.90;40.70
47576;DHT22;33304;52.456;13.328;2023-02-10T11:46:57;5.90;40.70
47576;DHT22;33304;52.456;13.328;2023-02-10T11:49:26;5.90;39.70
47576;DHT22;33304;52.456;13.328;2023-02-10T11:51:59;6.00;39.90
47576;DHT22;33304;52.456;13.328;2023-02-10T11:54:27;6.10;38.70
47576;DHT22;33304;52.456;13.328;2023-02-10T11:57:09;6.20;38.40
47576;DHT22;33304;52.456;13.328;2023-02-10T12:00:07;6.30;36.50
47576;DHT22;33304;52.456;13.328;2023-02-10T12:02:59;6.40;36.70
47576;DHT22;33304;52.456;13.328;2023-02-10T12:05:35;6.40;36.00
47576;DHT22;33304;52.456;13.328;2023-02-10T12:08:13;6.40;35.40
47576;DHT22;33304;52.456;13.328;2023-02-10T12:10:44;6.50;35.50
47576;DHT22;33304;52.456;13.328;2023-02-10T12:13:22;6.40;35.30
47576;DHT22;33304;52.456;13.328;2023-02-10T12:16:01;6.40;35.30
47576;DHT22;33304;52.456;13.328;2023-02-10T12:18:39;6.50;35.40
47576;DHT22;33304;52.456;13.328;2023-02-10T12:21:19;6.60;34.70
47576;DHT22;33304;52.456;13.328;2023-02-10T12:24:03;6.50;35.30
47576;DHT22;33304;52.456;13.328;2023-02-10T12:26:38;6.50;35.50
47576;DHT22;33304;52.456;13.328;2023-02-10T12:29:16;6.60;34.80
47576;DHT22;33304;52.456;13.328;2023-02-10T12:31:53;6.70;33.90
47576;DHT22;33304;52.456;13.328;2023-02-10T12:34:42;6.70;33.90
47576;DHT22;33304;52.456;13.328;2023-02-10T12:37:20;6.70;33.90
47576;DHT22;33304;52.456;13.328;2023-02-10T12:40:07;6.80;33.80
47576;DHT22;33304;52.456;13.328;2023-02-10T12:42:43;6.80;33.20
47576;DHT22;33304;52.456;13.328;2023-02-10T12:45:21;6.90;32.80
47576;DHT22;33304;52.456;13.328;2023-02-10T12:47:58;6.80;33.50
47576;DHT22;33304;52.456;13.328;2023-02-10T12:50:39;6.90;32.50
47576;DHT22;33304;52.456;13.328;2023-02-10T12:53:13;7.00;32.10
47576;DHT22;33304;52.456;13.328;2023-02-10T12:55:47;6.90;32.40
47576;DHT22;33304;52.456;13.328;2023-02-10T12:58:19;6.70;32.40
47576;DHT22;33304;52.456;13.328;2023-02-10T13:00:50;6.70;33.00
47576;DHT22;33304;52.456;13.328;2023-02-10T13:03:23;6.70;32.80
47576;DHT22;33304;52.456;13.328;2023-02-10T13:05:56;6.60;33.70
47576;DHT22;33304;52.456;13.328;2023-02-10T13:08:30;6.60;34.00
47576;DHT22;33304;52.456;13.328;2023-02-10T13:11:02;6.80;33.30
47576;DHT22;33304;52.456;13.328;2023-02-10T13:13:32;6.70;33.00
47576;DHT22;33304;52.456;13.328;2023-02-10T13:16:06;6.80;32.80
47576;DHT22;33304;52.456;13.328;2023-02-10T13:18:40;6.80;32.70
47576;DHT22;33304;52.456;13.328;2023-02-10T13:21:15;6.80;32.70
47576;DHT22;33304;52.456;13.328;2023-02-10T13:23:47;6.70;32.80
47576;DHT22;33304;52.456;13.328;2023-02-10T13:26:31;6.70;33.90
47576;DHT22;33304;52.456;13.328;2023-02-10T13:29:10;6.60;33.90
47576;DHT22;33304;52.456;13.328;2023-02-10T13:31:49;6.60;34.10
47576;DHT22;33304;52.456;13.328;2023-02-10T13:34:21;6.50;34.30
47576;DHT22;33304;52.456;13.328;2023-02-10T13:36:56;6.50;34.70
47576;DHT22;33304;52.456;13.328;2023-02-10T13:39:25;6.70;34.60
47576;DHT22;33304;52.456;13.328;2023-02-10T13:42:07;6.70;34.30
47576;DHT22;33304;52.456;13.328;2023-02-10T13:44:36;6.80;33.10
47576;DHT22;33304;52.456;13.328;2023-02-10T13:47:27;6.70;33.70
47576;DHT22;33304;52.456;13.328;2023-02-10T13:49:57;6.60;33.70
47576;DHT22;33304;52.456;13.328;2023-02-10T13:52:28;6.50;34.80
47576;DHT22;33304;52.456;13.328;2023-02-10T13:55:00;6.50;34.60
47576;DHT22;33304;52.456;13.328;2023-02-10T13:57:30;6.60;33.70
47576;DHT22;33304;52.456;13.328;2023-02-10T14:02:44;6.50;33.90
47576;DHT22;33304;52.456;13.328;2023-02-10T14:05:23;6.40;34.40
47576;DHT22;33304;52.456;13.328;2023-02-10T14:07:51;6.20;35.20
47576;DHT22;33304;52.456;13.328;2023-02-10T14:10:32;6.30;35.30
47576;DHT22;33304;52.456;13.328;2023-02-10T14:13:03;6.40;34.80
47576;DHT22;33304;52.456;13.328;2023-02-10T14:15:33;6.50;34.40
47576;DHT22;33304;52.456;13.328;2023-02-10T14:18:04;6.50;34.00
47576;DHT22;33304;52.456;13.328;2023-02-10T14:20:34;6.50;34.00
47576;DHT22;33304;52.456;13.328;2023-02-10T14:23:03;6.60;33.60
47576;DHT22;33304;52.456;13.328;2023-02-10T14:25:38;6.60;33.30
47576;DHT22;33304;52.456;13.328;2023-02-10T14:28:17;6.70;33.00
47576;DHT22;33304;52.456;13.328;2023-02-10T14:30:50;6.80;32.70
47576;DHT22;33304;52.456;13.328;2023-02-10T14:33:24;6.80;32.50
47576;DHT22;33304;52.456;13.328;2023-02-10T14:35:53;6.90;31.90
47576;DHT22;33304;52.456;13.328;2023-02-10T14:38:22;6.80;32.20
47576;DHT22;33304;52.456;13.328;2023-02-10T14:40:52;6.80;32.00
47576;DHT22;33304;52.456;13.328;2023-02-10T14:43:24;6.90;31.40
47576;DHT22;33304;52.456;13.328;2023-02-10T14:45:53;6.90;31.40
47576;DHT22;33304;52.456;13.328;2023-02-10T14:48:22;6.80;31.50
47576;DHT22;33304;52.456;13.328;2023-02-10T14:51:06;6.70;31.60
47576;DHT22;33304;52.456;13.328;2023-02-10T14:53:36;6.70;31.90
47576;DHT22;33304;52.456;13.328;2023-02-10T14:56:12;6.60;32.30
47576;DHT22;33304;52.456;13.328;2023-02-10T14:58:42;6.50;32.70
47576;DHT22;33304;52.456;13.328;2023-02-10T15:01:14;6.40;33.10
47576;DHT22;33304;52.456;13.328;2023-02-10T15:03:44;6.50;32.80
47576;DHT22;33304;52.456;13.328;2023-02-10T15:06:15;6.50;33.30
47576;DHT22;33304;52.456;13.328;2023-02-10T15:08:45;6.30;33.30
47576;DHT22;33304;52.456;13.328;2023-02-10T15:11:18;6.30;33.60
47576;DHT22;33304;52.456;13.328;2023-02-10T15:14:12;6.30;33.80
47576;DHT22;33304;52.456;13.328;2023-02-10T15:16:41;6.30;34.20
47576;DHT22;33304;52.456;13.328;2023-02-10T15:19:14;6.30;34.10
47576;DHT22;33304;52.456;13.328;2023-02-10T15:21:42;6.20;34.20
47576;DHT22;33304;52.456;13.328;2023-02-10T15:24:24;6.30;34.70
47576;DHT22;33304;52.456;13.328;2023-02-10T15:26:52;6.30;34.00
47576;DHT22;33304;52.456;13.328;2023-02-10T15:29:19;6.30;34.50
47576;DHT22;33304;52.456;13.328;2023-02-10T15:31:55;6.20;34.40
47576;DHT22;33304;52.456;13.328;2023-02-10T15:34:25;6.00;35.50
47576;DHT22;33304;52.456;13.328;2023-02-10T15:36:59;5.80;36.50
47576;DHT22;33304;52.456;13.328;2023-02-10T15:39:28;6.00;36.40
47576;DHT22;33304;52.456;13.328;2023-02-10T15:42:02;6.00;35.70
47576;DHT22;33304;52.456;13.328;2023-02-10T15:44:39;5.80;36.40
47576;DHT22;33304;52.456;13.328;2023-02-10T15:47:23;5.70;37.60
47576;DHT22;33304;52.456;13.328;2023-02-10T15:50:10;5.60;37.80
47576;DHT22;33304;52.456;13.328;2023-02-10T15:52:40;5.70;37.80
47576;DHT22;33304;52.456;13.328;2023-02-10T15:55:14;5.70;37.40